Main page
METAR-TAF:

METAR-TAF

Airports :

Piešťany, Slovakia

Piešťany Airport

latitude: 48-37-30N, longitude: 017-49-43E, elevation: 163 m

Current weather observation

The report was made 37 minutes ago, at 02:00 UTC
Wind 5 kt from the South/Southwest
Temperature 15°C
Humidity 72%
Pressure 1005 hPa
Visibility 10 km or more

METAR: LZPP 260200Z AUTO 20005KT 9999 OVC073/// 15/10 Q1005

Time: 04:37 (02:37 UTC)

Forecast

The report was made 9 hours and 37 minutes ago, at 17:00 UTC
Forecast valid from 25 at 18 UTC to 26 at 03 UTC
Wind 11 kt from the West/Northwest
Visibility 10 km or more
no clouds below 1500 m and no cumulonimbus
Becoming
from 25 at 18 UTC to 25 at 20 UTC
Wind 6 kt from the West

TAF: LZPP 251700Z 2518/2603 30011KT CAVOK BECMG 2518/2520 26006KT

Weather observations and forecasts of more than 4000 airports (METAR and TAF reports).

The available stations are represented by yellow and red dots on the map.

Hover mouse over dot to see the name of the station.

Then click to see weather observations and forecasts.

To change the map : click on the green buttons with a black cross to zoom in, on the green button with a dash to zoom out, or on the green arrows for adjacent maps.


METAR-TAF: